Time;durP1;ratioP1;P1;durP2;ratioP2;P2;SDS_P1;SDS_P2;PMS_P1;PMS_P2;Temp;Humidity;BMP_temperature;BMP_pressure;BME280_temperature;BME280_humidity;BME280_pressure;Samples;Min_cycle;Max_cycle;Signal;HPM_P1;HPM_P2
2023/03/07 00:00:20;;;;;;;20.05;10.30;;;;;;;;;;10261709;28;20299;-78
2023/03/07 00:05:39;;;;;;;16.98;9.40;;;;;;;;;;10250026;28;20047;-78
2023/03/07 00:10:52;;;;;;;16.20;8.57;;;;;;;;;;10262756;28;20051;-78
2023/03/07 00:16:35;;;;;;;16.98;9.50;;;;;;;;;;10274329;28;20242;-78
2023/03/07 00:22:26;;;;;;;22.67;12.68;;;;;;;;;;10054014;29;20138;-79
2023/03/07 00:28:37;;;;;;;16.05;9.20;;;;;;;;;;10100658;29;20080;-79
2023/03/07 00:34:42;;;;;;;;;;;;;;;;;;;;;
2023/03/07 00:40:28;;;;;;;13.13;8.00;;;;;;;;;;10233907;28;20545;-78
2023/03/07 00:52:58;;;;;;;10.13;6.32;;;;;;;;;;10171429;28;20385;-79
2023/03/07 00:58:49;;;;;;;11.88;7.15;;;;;;;;;;10249716;28;20727;-79
2023/03/07 01:04:23;;;;;;;10.75;6.68;;;;;;;;;;10092505;28;20981;-79
2023/03/07 01:10:55;;;;;;;;;;;;;;;;;;;;;
2023/03/07 01:23:09;;;;;;;10.18;5.30;;;;;;;;;;10231653;28;20057;-79
2023/03/07 01:28:26;;;;;;;6.47;4.00;;;;;;;;;;10253592;28;20043;-78
2023/03/07 01:34:00;;;;;;;7.00;4.40;;;;;;;;;;10232328;28;20446;-79
2023/03/07 01:39:41;;;;;;;10.57;6.50;;;;;;;;;;10235532;28;20078;-79
2023/03/07 01:51:08;;;;;;;10.30;6.57;;;;;;;;;;10227141;23;20059;-79
2023/03/07 01:56:42;;;;;;;9.40;6.10;;;;;;;;;;10227529;28;20043;-79
2023/03/07 02:03:10;;;;;;;11.30;6.70;;;;;;;;;;10195335;28;20488;-79
2023/03/07 02:27:27;;;;;;;;;;;;;;;;;;;;;
2023/03/07 02:33:41;;;;;;;;;;;;;;;;;;;;;
2023/03/07 02:39:40;;;;;;;9.35;6.05;;;;;;;;;;10229288;28;20061;-80
2023/03/07 02:45:15;;;;;;;;;;;;;;;;;;;;;
2023/03/07 02:51:07;;;;;;;;;;;;;;;;;;;;;
2023/03/07 03:09:01;;;;;;;13.43;8.82;;;;;;;;;;10159634;29;20563;-79
2023/03/07 03:14:39;;;;;;;13.10;8.80;;;;;;;;;;10201629;28;20050;-80
2023/03/07 03:20:18;;;;;;;13.52;8.95;;;;;;;;;;10234787;28;20085;-80
2023/03/07 03:25:58;;;;;;;14.05;8.88;;;;;;;;;;10235462;28;20059;-80
2023/03/07 03:31:24;;;;;;;14.25;9.40;;;;;;;;;;10147601;29;20076;-80
2023/03/07 03:36:40;;;;;;;14.18;9.30;;;;;;;;;;10224875;28;20051;-79
2023/03/07 03:42:02;;;;;;;;;;;;;;;;;;;;;
2023/03/07 03:53:24;;;;;;;16.52;11.55;;;;;;;;;;10116912;28;20102;-80
2023/03/07 03:58:50;;;;;;;14.13;9.13;;;;;;;;;;10214755;28;20054;-80
2023/03/07 04:04:14;;;;;;;17.95;10.57;;;;;;;;;;10231574;28;20090;-80
2023/03/07 04:09:50;;;;;;;19.08;13.00;;;;;;;;;;10239128;28;20126;-80
2023/03/07 04:16:00;;;;;;;19.10;11.35;;;;;;;;;;10227864;28;20444;-80
2023/03/07 04:21:54;;;;;;;15.80;10.07;;;;;;;;;;10018581;29;20052;-80
2023/03/07 04:27:26;;;;;;;16.33;10.18;;;;;;;;;;10037043;29;20093;-81
2023/03/07 04:38:37;;;;;;;14.32;9.45;;;;;;;;;;10049270;29;20128;-80
2023/03/07 04:43:53;;;;;;;14.30;9.35;;;;;;;;;;10039288;29;20055;-80
2023/03/07 04:49:36;;;;;;;15.90;9.38;;;;;;;;;;10148586;28;20115;-80
2023/03/07 04:55:27;;;;;;;16.40;10.95;;;;;;;;;;10205064;28;20558;-80
2023/03/07 05:01:12;;;;;;;16.95;9.73;;;;;;;;;;10195961;28;20049;-79
2023/03/07 05:06:21;;;;;;;15.30;9.20;;;;;;;;;;10215601;29;20043;-80
2023/03/07 05:11:30;;;;;;;13.93;8.57;;;;;;;;;;10238508;28;20134;-79
2023/03/07 05:17:09;;;;;;;;;;;;;;;;;;;;;
2023/03/07 05:23:07;;;;;;;15.27;9.57;;;;;;;;;;10206398;29;20059;-79
2023/03/07 05:29:04;;;;;;;13.18;8.35;;;;;;;;;;10212721;28;20051;-80
2023/03/07 05:34:38;;;;;;;12.18;7.97;;;;;;;;;;10044936;29;20132;-80
2023/03/07 05:46:04;;;;;;;16.42;8.98;;;;;;;;;;10064824;29;20064;-80
2023/03/07 05:51:43;;;;;;;13.02;8.23;;;;;;;;;;10168917;29;20412;-80
2023/03/07 05:57:12;;;;;;;11.25;7.43;;;;;;;;;;10089812;29;20063;-80
2023/03/07 06:02:27;;;;;;;;;;;;;;;;;;;;;
2023/03/07 06:07:42;;;;;;;14.75;8.68;;;;;;;;;;10217038;28;20051;-80
2023/03/07 06:13:48;;;;;;;11.57;7.00;;;;;;;;;;10215322;28;20077;-80
2023/03/07 06:20:13;;;;;;;;;;;;;;;;;;;;;
2023/03/07 06:32:28;;;;;;;10.10;6.53;;;;;;;;;;10204500;28;20075;-80
2023/03/07 06:38:45;;;;;;;;;;;;;;;;;;;;;
2023/03/07 06:50:36;;;;;;;16.40;8.82;;;;;;;;;;9917335;29;19924;-80
2023/03/07 06:56:16;;;;;;;11.68;7.18;;;;;;;;;;10057061;29;20498;-80
2023/03/07 07:08:12;;;;;;;10.93;7.03;;;;;;;;;;10202081;28;20043;-79
2023/03/07 07:20:28;;;;;;;9.57;6.00;;;;;;;;;;10344272;23;20054;-82
2023/03/07 07:25:32;;;;;;;12.13;7.65;;;;;;;;;;10271283;28;20043;-83
2023/03/07 07:30:35;;;;;;;11.57;6.38;;;;;;;;;;10284921;28;20046;-85
2023/03/07 07:35:41;;;;;;;7.32;4.40;;;;;;;;;;10285458;28;20038;-85
2023/03/07 07:40:45;;;;;;;;;;;;;;;;;;10257417;28;20051;-85
2023/03/07 07:45:49;;;;;;;12.02;7.20;;;;;;;;;;10268386;28;19933;-85
2023/03/07 07:51:01;;;;;;;12.50;6.10;;;;;;;;;;10283072;28;20084;-85
2023/03/07 07:56:05;;;;;;;7.15;4.60;;;;;;;;;;10287269;28;20058;-85
2023/03/07 08:01:16;;;;;;;8.50;4.40;;;;;;;;;;10294408;28;20126;-85
2023/03/07 08:06:22;;;;;;;7.63;4.05;;;;;;;;;;10286311;28;20413;-83
2023/03/07 08:11:26;;;;;;;7.53;4.43;;;;;;;;;;10289622;28;20468;-83
2023/03/07 08:16:30;;;;;;;4.20;3.28;;;;;;;;;;10280449;28;20042;-84
2023/03/07 08:21:35;;;;;;;6.90;4.55;;;;;;;;;;10271066;28;20522;-84
2023/03/07 08:26:39;;;;;;;6.22;3.92;;;;;;;;;;10289039;28;20096;-84
2023/03/07 08:31:44;;;;;;;6.50;4.50;;;;;;;;;;10255312;28;20051;-85
2023/03/07 08:36:49;;;;;;;6.18;3.75;;;;;;;;;;10283425;28;20054;-85
2023/03/07 08:41:54;;;;;;;12.32;7.55;;;;;;;;;;10264067;28;20161;-84
2023/03/07 08:46:57;;;;;;;12.35;7.35;;;;;;;;;;10262360;28;20129;-84
2023/03/07 08:52:02;;;;;;;10.63;6.57;;;;;;;;;;10251689;28;20513;-85
2023/03/07 08:57:06;;;;;;;12.00;6.97;;;;;;;;;;10255692;28;20421;-84
2023/03/07 09:02:10;;;;;;;10.88;6.53;;;;;;;;;;10271872;28;20046;-84
2023/03/07 09:07:15;;;;;;;11.07;6.97;;;;;;;;;;10277246;28;20047;-84
2023/03/07 09:12:19;;;;;;;13.23;8.15;;;;;;;;;;10286246;28;20046;-87
2023/03/07 09:17:23;;;;;;;11.07;7.53;;;;;;;;;;10277944;28;20069;-86
2023/03/07 09:22:28;;;;;;;10.15;7.15;;;;;;;;;;10263478;28;20051;-90
2023/03/07 09:27:32;;;;;;;11.60;7.57;;;;;;;;;;10284907;28;20093;-87
2023/03/07 09:32:36;;;;;;;13.07;7.47;;;;;;;;;;10271434;28;20216;-84
2023/03/07 09:37:41;;;;;;;10.80;6.93;;;;;;;;;;10294157;28;20873;-85
2023/03/07 09:42:56;;;;;;;11.27;6.40;;;;;;;;;;10282665;28;20134;-85
2023/03/07 09:48:25;;;;;;;14.15;6.90;;;;;;;;;;10279958;28;20066;-85
2023/03/07 09:53:37;;;;;;;10.30;6.13;;;;;;;;;;10262003;28;20053;-85
2023/03/07 09:58:45;;;;;;;11.85;7.28;;;;;;;;;;10252798;28;20043;-84
2023/03/07 10:03:56;;;;;;;12.32;6.70;;;;;;;;;;10255787;28;20050;-84
2023/03/07 10:09:04;;;;;;;12.20;7.18;;;;;;;;;;10275349;28;21495;-88
2023/03/07 10:14:22;;;;;;;12.77;7.35;;;;;;;;;;10274025;28;20550;-86
2023/03/07 10:19:34;;;;;;;12.15;7.53;;;;;;;;;;10271313;28;20046;-89
2023/03/07 10:25:00;;;;;;;12.55;7.38;;;;;;;;;;10281681;28;20154;-85
2023/03/07 10:30:14;;;;;;;11.75;7.07;;;;;;;;;;10263919;28;20050;-85
2023/03/07 10:35:20;;;;;;;11.07;6.40;;;;;;;;;;10276628;28;20044;-85
2023/03/07 10:40:32;;;;;;;9.48;5.78;;;;;;;;;;10261289;28;20438;-85
2023/03/07 10:45:36;;;;;;;11.70;6.93;;;;;;;;;;10291796;28;20506;-85
2023/03/07 10:50:46;;;;;;;8.63;6.35;;;;;;;;;;10266030;28;20047;-85
2023/03/07 10:55:51;;;;;;;8.60;5.32;;;;;;;;;;10278253;28;20169;-87
2023/03/07 11:01:17;;;;;;;14.90;6.88;;;;;;;;;;10283471;28;20070;-86
2023/03/07 11:06:32;;;;;;;12.85;6.35;;;;;;;;;;10269559;28;20409;-87
2023/03/07 11:11:38;;;;;;;9.87;6.70;;;;;;;;;;10274690;28;20097;-87
2023/03/07 11:16:47;;;;;;;11.17;6.40;;;;;;;;;;10246574;28;20151;-87
2023/03/07 11:21:53;;;;;;;11.10;6.65;;;;;;;;;;10265722;28;20142;-87
2023/03/07 11:27:00;;;;;;;8.35;5.05;;;;;;;;;;10277573;28;20137;-87
2023/03/07 11:32:09;;;;;;;;;;;;;;;;;;10273922;28;20061;-87
2023/03/07 11:37:28;;;;;;;11.18;6.75;;;;;;;;;;10312605;28;20028;-87
2023/03/07 11:42:38;;;;;;;9.90;6.30;;;;;;;;;;10282899;28;20594;-85
2023/03/07 11:47:51;;;;;;;9.65;6.53;;;;;;;;;;10277360;28;20066;-85
2023/03/07 11:53:09;;;;;;;9.40;5.45;;;;;;;;;;10271150;28;20150;-84
2023/03/07 11:58:39;;;;;;;7.63;5.22;;;;;;;;;;10271606;28;20399;-84
2023/03/07 12:04:34;;;;;;;8.77;5.65;;;;;;;;;;10288205;28;20139;-84
2023/03/07 12:09:51;;;;;;;10.47;6.07;;;;;;;;;;10128377;29;20146;-85
2023/03/07 12:15:03;;;;;;;9.02;5.10;;;;;;;;;;10250873;28;20074;-82
2023/03/07 12:20:30;;;;;;;9.65;5.63;;;;;;;;;;10267229;28;20711;-83
2023/03/07 12:25:37;;;;;;;9.40;6.03;;;;;;;;;;10294850;28;20080;-82
2023/03/07 12:31:03;;;;;;;9.70;5.15;;;;;;;;;;10265493;28;20231;-85
2023/03/07 12:36:13;;;;;;;7.32;5.15;;;;;;;;;;10277628;28;20630;-84
2023/03/07 12:41:26;;;;;;;8.05;5.10;;;;;;;;;;10283955;28;20137;-85
2023/03/07 12:46:40;;;;;;;8.65;5.40;;;;;;;;;;10268125;28;20046;-82
2023/03/07 12:51:47;;;;;;;7.00;5.07;;;;;;;;;;10260438;28;20719;-87
2023/03/07 12:56:57;;;;;;;9.60;5.65;;;;;;;;;;10274107;28;20055;-83
2023/03/07 13:02:04;;;;;;;9.48;5.97;;;;;;;;;;10270153;28;20526;-84
2023/03/07 13:07:10;;;;;;;8.20;4.95;;;;;;;;;;10268152;28;20042;-85
2023/03/07 13:12:34;;;;;;;8.30;5.70;;;;;;;;;;10237065;28;20042;-82
2023/03/07 13:17:59;;;;;;;8.13;5.53;;;;;;;;;;10277964;28;20571;-84
2023/03/07 13:23:26;;;;;;;10.98;6.78;;;;;;;;;;10270225;28;20125;-83
2023/03/07 13:28:51;;;;;;;8.98;5.72;;;;;;;;;;10269120;28;20080;-88
2023/03/07 13:33:56;;;;;;;11.82;5.93;;;;;;;;;;10264144;28;20049;-83
2023/03/07 13:38:59;;;;;;;11.00;6.95;;;;;;;;;;10276950;28;20057;-85
2023/03/07 13:44:03;;;;;;;9.63;5.97;;;;;;;;;;10254798;28;20046;-84
2023/03/07 13:49:08;;;;;;;9.13;5.40;;;;;;;;;;10265769;28;20129;-83
2023/03/07 13:54:14;;;;;;;10.05;6.03;;;;;;;;;;10241675;28;20118;-85
2023/03/07 13:59:27;;;;;;;11.40;6.80;;;;;;;;;;10286429;28;20794;-84
2023/03/07 14:04:40;;;;;;;12.02;6.22;;;;;;;;;;10294945;28;20441;-87
2023/03/07 14:09:51;;;;;;;9.35;5.78;;;;;;;;;;10266993;28;20141;-83
2023/03/07 14:15:11;;;;;;;8.10;5.07;;;;;;;;;;10280544;28;20046;-83
2023/03/07 14:20:24;;;;;;;9.73;5.63;;;;;;;;;;10291678;28;20130;-83
2023/03/07 14:25:30;;;;;;;6.85;4.78;;;;;;;;;;10262103;28;20137;-83
2023/03/07 14:30:34;;;;;;;14.05;5.55;;;;;;;;;;10258943;28;20059;-83
2023/03/07 14:35:41;;;;;;;7.13;4.72;;;;;;;;;;10272839;28;20249;-83
2023/03/07 14:41:16;;;;;;;11.13;5.95;;;;;;;;;;10270131;28;20050;-83
2023/03/07 14:46:28;;;;;;;10.23;5.55;;;;;;;;;;10274351;28;20050;-87
2023/03/07 14:51:38;;;;;;;7.53;4.72;;;;;;;;;;10272953;28;20069;-83
2023/03/07 14:56:42;;;;;;;7.22;4.82;;;;;;;;;;10239884;28;20043;-85
2023/03/07 15:01:48;;;;;;;7.05;5.07;;;;;;;;;;10262747;28;20059;-88
2023/03/07 15:06:57;;;;;;;10.30;6.32;;;;;;;;;;10285639;28;20046;-86
2023/03/07 15:12:02;;;;;;;7.97;5.45;;;;;;;;;;10280383;28;20586;-86
2023/03/07 15:17:14;;;;;;;8.20;5.07;;;;;;;;;;10264041;28;20053;-84
2023/03/07 15:22:23;;;;;;;8.23;5.10;;;;;;;;;;10275863;28;20042;-83
2023/03/07 15:27:29;;;;;;;8.73;5.68;;;;;;;;;;10266273;28;20043;-83
2023/03/07 15:32:34;;;;;;;;;;;;;;;;;;10280775;28;20058;-84
2023/03/07 15:37:56;;;;;;;9.60;6.03;;;;;;;;;;10281305;28;20521;-86
2023/03/07 15:43:24;;;;;;;7.40;4.80;;;;;;;;;;10275443;28;20553;-85
2023/03/07 15:48:40;;;;;;;11.75;6.53;;;;;;;;;;10273542;28;20058;-83
2023/03/07 15:53:56;;;;;;;9.90;6.07;;;;;;;;;;10279488;28;20038;-83
2023/03/07 15:59:02;;;;;;;8.70;6.07;;;;;;;;;;10265687;28;20081;-83
2023/03/07 16:04:06;;;;;;;10.25;5.95;;;;;;;;;;10272447;28;20053;-86
2023/03/07 16:09:13;;;;;;;14.23;6.93;;;;;;;;;;10297438;28;20051;-85
2023/03/07 16:14:24;;;;;;;10.13;6.07;;;;;;;;;;10280401;28;20847;-88
2023/03/07 16:19:27;;;;;;;11.27;7.38;;;;;;;;;;10299004;28;20134;-86
2023/03/07 16:24:32;;;;;;;12.43;7.38;;;;;;;;;;10276006;28;20125;-87
2023/03/07 16:29:36;;;;;;;11.48;7.32;;;;;;;;;;10252270;28;21604;-89
2023/03/07 16:34:39;;;;;;;11.30;5.72;;;;;;;;;;10273212;28;20461;-88
2023/03/07 16:39:44;;;;;;;12.20;6.68;;;;;;;;;;10238831;28;20086;-83
2023/03/07 16:44:48;;;;;;;13.68;7.20;;;;;;;;;;10250741;28;20594;-83
2023/03/07 16:49:51;;;;;;;11.48;6.50;;;;;;;;;;10265263;28;20057;-84
2023/03/07 16:54:56;;;;;;;11.90;7.10;;;;;;;;;;10295492;28;20414;-85
2023/03/07 17:00:00;;;;;;;9.25;5.97;;;;;;;;;;10283057;28;20112;-86
2023/03/07 17:05:14;;;;;;;13.32;6.57;;;;;;;;;;10250233;28;20122;-88
2023/03/07 17:10:19;;;;;;;11.10;6.63;;;;;;;;;;10258247;28;20192;-84
2023/03/07 17:15:29;;;;;;;9.57;5.90;;;;;;;;;;10240769;28;20057;-83
2023/03/07 17:20:32;;;;;;;10.90;6.38;;;;;;;;;;10286582;28;20098;-83
2023/03/07 17:25:40;;;;;;;10.60;5.88;;;;;;;;;;10253833;28;20070;-83
2023/03/07 17:30:44;;;;;;;8.27;5.20;;;;;;;;;;10248093;28;20214;-83
2023/03/07 17:35:48;;;;;;;8.52;5.53;;;;;;;;;;10289172;28;20097;-83
2023/03/07 17:40:55;;;;;;;8.75;4.63;;;;;;;;;;10258375;28;20120;-83
2023/03/07 17:45:59;;;;;;;8.88;5.35;;;;;;;;;;10277409;28;20054;-83
2023/03/07 17:51:06;;;;;;;8.60;5.30;;;;;;;;;;10270473;28;20132;-85
2023/03/07 17:56:13;;;;;;;11.43;6.10;;;;;;;;;;10271455;28;20137;-89
2023/03/07 18:01:16;;;;;;;9.25;5.07;;;;;;;;;;10277736;28;20197;-85
2023/03/07 18:06:20;;;;;;;10.15;6.70;;;;;;;;;;10266427;28;20039;-88
2023/03/07 18:11:25;;;;;;;10.80;6.82;;;;;;;;;;10270049;28;20050;-86
2023/03/07 18:16:28;;;;;;;11.40;7.10;;;;;;;;;;10264057;28;20046;-86
2023/03/07 18:21:32;;;;;;;10.02;6.35;;;;;;;;;;10259092;28;20040;-86
2023/03/07 18:26:36;;;;;;;11.27;7.60;;;;;;;;;;10290008;28;20043;-86
2023/03/07 18:31:40;;;;;;;10.98;6.85;;;;;;;;;;10243292;28;20042;-88
2023/03/07 18:36:44;;;;;;;11.82;7.30;;;;;;;;;;10264867;28;20054;-89
2023/03/07 18:41:52;;;;;;;9.38;6.28;;;;;;;;;;10285900;28;20054;-88
2023/03/07 18:46:55;;;;;;;6.43;4.60;;;;;;;;;;10283942;28;20163;-86
2023/03/07 18:52:02;;;;;;;5.00;2.50;;;;;;;;;;10262538;28;20074;-83
2023/03/07 18:57:08;;;;;;;1.98;1.67;;;;;;;;;;10267149;28;20432;-84
2023/03/07 19:02:11;;;;;;;2.45;1.70;;;;;;;;;;10247895;28;20434;-84
2023/03/07 19:07:15;;;;;;;1.48;1.23;;;;;;;;;;10247268;28;20500;-88
2023/03/07 19:12:20;;;;;;;1.02;0.93;;;;;;;;;;10237237;28;20040;-86
2023/03/07 19:17:24;;;;;;;1.55;0.98;;;;;;;;;;10251875;28;20512;-86
2023/03/07 19:22:30;;;;;;;1.63;1.30;;;;;;;;;;10261431;28;20121;-86
2023/03/07 19:27:35;;;;;;;;;;;;;;;;;;10288287;28;20042;-90
2023/03/07 19:32:41;;;;;;;1.20;1.10;;;;;;;;;;10272720;28;19925;-88
2023/03/07 19:37:44;;;;;;;0.73;0.73;;;;;;;;;;10271562;28;20494;-89
2023/03/07 19:43:14;;;;;;;1.00;0.93;;;;;;;;;;10254929;28;20047;-87
2023/03/07 19:48:18;;;;;;;1.08;0.98;;;;;;;;;;10230739;28;20134;-88
2023/03/07 19:53:21;;;;;;;1.20;1.10;;;;;;;;;;10243402;28;20078;-91
2023/03/07 19:58:27;;;;;;;1.33;1.08;;;;;;;;;;10232085;28;20043;-84
2023/03/07 20:03:30;;;;;;;1.10;1.00;;;;;;;;;;10266178;28;20630;-84
2023/03/07 20:08:34;;;;;;;2.00;1.50;;;;;;;;;;10246389;28;20094;-84
2023/03/07 20:13:40;;;;;;;2.63;1.48;;;;;;;;;;10225077;28;20047;-84
2023/03/07 20:18:44;;;;;;;2.35;1.63;;;;;;;;;;10262914;28;20070;-84
2023/03/07 20:23:51;;;;;;;2.15;1.70;;;;;;;;;;10249793;28;20047;-84
2023/03/07 20:28:57;;;;;;;1.85;1.40;;;;;;;;;;10275498;28;20043;-84
2023/03/07 20:34:00;;;;;;;1.60;1.50;;;;;;;;;;10249797;28;20054;-84
2023/03/07 20:39:06;;;;;;;3.47;2.38;;;;;;;;;;10279571;28;20540;-84
2023/03/07 20:44:13;;;;;;;3.05;2.08;;;;;;;;;;10277391;28;20121;-82
2023/03/07 20:49:17;;;;;;;2.35;2.08;;;;;;;;;;10264017;28;20053;-83
2023/03/07 20:54:20;;;;;;;2.13;1.92;;;;;;;;;;10271181;28;20039;-85
2023/03/07 20:59:25;;;;;;;2.25;2.05;;;;;;;;;;10270106;28;20069;-88
2023/03/07 21:04:28;;;;;;;2.38;1.98;;;;;;;;;;10256208;28;20042;-86
2023/03/07 21:09:32;;;;;;;2.30;2.10;;;;;;;;;;10270341;28;20042;-88
2023/03/07 21:14:37;;;;;;;3.88;2.60;;;;;;;;;;10273673;28;20050;-84
2023/03/07 21:19:44;;;;;;;4.47;3.10;;;;;;;;;;10228185;28;20495;-87
2023/03/07 21:24:47;;;;;;;3.85;2.50;;;;;;;;;;10301017;28;20050;-85
2023/03/07 21:29:52;;;;;;;3.25;2.35;;;;;;;;;;10275063;28;20042;-85
2023/03/07 21:34:57;;;;;;;2.40;1.80;;;;;;;;;;10261807;28;20047;-84
2023/03/07 21:40:04;;;;;;;3.55;2.47;;;;;;;;;;10263631;28;20125;-84
2023/03/07 21:45:13;;;;;;;3.03;2.03;;;;;;;;;;10263840;28;20066;-85
2023/03/07 21:50:29;;;;;;;2.65;2.15;;;;;;;;;;10277802;28;20050;-90
2023/03/07 21:55:35;;;;;;;2.40;1.95;;;;;;;;;;10262196;28;20058;-85
2023/03/07 22:00:40;;;;;;;2.20;1.98;;;;;;;;;;10262492;28;20101;-86
2023/03/07 22:05:46;;;;;;;4.38;2.92;;;;;;;;;;10282120;28;20094;-85
2023/03/07 22:10:58;;;;;;;6.93;3.90;;;;;;;;;;10255098;28;20468;-85
2023/03/07 22:16:06;;;;;;;3.95;2.55;;;;;;;;;;10250740;28;20070;-86
2023/03/07 22:21:12;;;;;;;3.75;2.25;;;;;;;;;;10261767;28;20116;-85
2023/03/07 22:26:16;;;;;;;2.88;2.20;;;;;;;;;;10272544;28;20176;-85
2023/03/07 22:31:21;;;;;;;3.15;2.30;;;;;;;;;;10288054;28;20043;-86
2023/03/07 22:36:25;;;;;;;5.72;4.05;;;;;;;;;;10286523;28;20062;-87
2023/03/07 22:41:28;;;;;;;7.55;4.45;;;;;;;;;;10274298;28;20043;-87
2023/03/07 22:46:33;;;;;;;5.22;3.63;;;;;;;;;;10285530;28;20062;-88
2023/03/07 22:51:37;;;;;;;3.10;2.00;;;;;;;;;;10315753;28;20210;-87
2023/03/07 22:56:40;;;;;;;1.50;1.40;;;;;;;;;;10273796;28;20043;-87
2023/03/07 23:01:49;;;;;;;2.15;1.60;;;;;;;;;;10283034;28;20058;-87
2023/03/07 23:06:54;;;;;;;3.13;1.92;;;;;;;;;;10275345;28;20046;-87
2023/03/07 23:11:59;;;;;;;2.63;1.67;;;;;;;;;;10259194;28;20102;-87
2023/03/07 23:17:05;;;;;;;1.33;1.23;;;;;;;;;;10273970;28;20046;-89
2023/03/07 23:22:14;;;;;;;3.05;1.48;;;;;;;;;;10264721;28;20047;-87
2023/03/07 23:27:17;;;;;;;1.85;1.17;;;;;;;;;;10289192;28;20057;-87
2023/03/07 23:32:22;;;;;;;2.13;1.55;;;;;;;;;;10270694;28;20070;-88
2023/03/07 23:37:25;;;;;;;1.95;1.52;;;;;;;;;;10282848;28;20045;-88
2023/03/07 23:42:29;;;;;;;3.15;1.50;;;;;;;;;;10267318;28;20035;-87
2023/03/07 23:47:35;;;;;;;1.58;1.48;;;;;;;;;;10268346;28;20055;-87
2023/03/07 23:52:38;;;;;;;1.20;1.10;;;;;;;;;;10229814;28;20127;-85
2023/03/07 23:57:42;;;;;;;1.67;1.10;;;;;;;;;;10256035;28;20043;-85
